createdAt,value
2023-01-29T00:01:55.364Z,0.03
2023-01-29T00:04:22.152Z,0.08
2023-01-29T00:06:48.707Z,0.15
2023-01-29T00:09:15.514Z,0.18
2023-01-29T00:11:42.932Z,0.23
2023-01-29T00:14:09.613Z,0.26
2023-01-29T00:16:36.427Z,0.30
2023-01-29T00:19:03.842Z,0.33
2023-01-29T00:21:31.993Z,0.35
2023-01-29T00:23:59.459Z,0.28
2023-01-29T00:26:27.400Z,0.30
2023-01-29T00:28:54.479Z,0.29
2023-01-29T00:31:25.309Z,0.29
2023-01-29T00:33:53.078Z,0.29
2023-01-29T00:36:21.561Z,0.29
2023-01-29T00:38:54.956Z,0.32
2023-01-29T00:41:46.377Z,0.31
2023-01-29T00:44:32.318Z,0.29
2023-01-29T00:46:59.503Z,0.26
2023-01-29T00:49:26.252Z,0.23
2023-01-29T00:52:25.367Z,0.19
2023-01-29T00:54:53.804Z,0.18
2023-01-29T00:57:21.041Z,0.14
2023-01-29T00:59:47.919Z,0.15
2023-01-29T01:02:33.359Z,0.17
2023-01-29T01:05:02.462Z,0.14
2023-01-29T01:07:30.386Z,0.21
2023-01-29T01:10:15.943Z,0.34
2023-01-29T01:12:42.765Z,0.42
2023-01-29T01:15:10.233Z,0.51
2023-01-29T01:17:36.943Z,0.53
2023-01-29T01:20:04.070Z,0.60
2023-01-29T01:22:32.250Z,0.63
2023-01-29T01:24:59.410Z,0.68
2023-01-29T01:27:26.372Z,0.73
2023-01-29T01:29:53.254Z,0.75
2023-01-29T01:32:20.050Z,0.76
2023-01-29T01:34:46.580Z,0.77
2023-01-29T01:37:13.272Z,0.74
2023-01-29T01:39:39.964Z,0.77
2023-01-29T01:42:12.480Z,0.80
2023-01-29T01:44:51.483Z,0.81
2023-01-29T01:47:23.717Z,0.85
2023-01-29T01:49:51.334Z,0.88
2023-01-29T01:52:21.872Z,0.91
2023-01-29T01:54:50.790Z,0.89
2023-01-29T01:57:25.284Z,0.93
2023-01-29T01:59:59.857Z,1.00
2023-01-29T02:02:46.209Z,1.00
2023-01-29T02:05:32.824Z,1.05
2023-01-29T02:08:18.517Z,1.06
2023-01-29T02:10:47.178Z,1.09
2023-01-29T02:13:16.635Z,1.08
2023-01-29T02:15:46.856Z,1.12
2023-01-29T02:18:15.642Z,1.10
2023-01-29T02:20:57.215Z,1.15
2023-01-29T02:23:43.843Z,1.21
2023-01-29T02:26:47.391Z,1.20
2023-01-29T02:29:39.568Z,1.24
2023-01-29T02:32:28.053Z,1.26
2023-01-29T02:35:22.637Z,1.20
2023-01-29T02:38:01.330Z,1.27
2023-01-29T02:40:41.052Z,1.25
2023-01-29T02:43:26.814Z,1.33
2023-01-29T02:46:03.259Z,1.33
2023-01-29T02:48:40.377Z,1.31
2023-01-29T02:51:16.721Z,1.39
2023-01-29T02:53:51.985Z,1.32
2023-01-29T02:56:35.903Z,1.37
2023-01-29T02:59:11.698Z,1.40
2023-01-29T03:02:00.219Z,1.31
2023-01-29T03:04:33.240Z,1.38
2023-01-29T03:07:22.448Z,1.40
2023-01-29T03:09:53.389Z,1.45
2023-01-29T03:12:35.017Z,1.45
2023-01-29T03:15:12.703Z,1.44
2023-01-29T03:17:55.527Z,1.46
2023-01-29T03:20:40.335Z,1.46
2023-01-29T03:23:14.581Z,1.46
2023-01-29T03:26:02.538Z,1.45
2023-01-29T03:28:51.354Z,1.44
2023-01-29T03:31:37.561Z,1.46
2023-01-29T03:34:16.413Z,1.54
2023-01-29T03:36:56.105Z,1.55
2023-01-29T03:39:25.624Z,1.56
2023-01-29T03:41:56.285Z,1.60
2023-01-29T03:44:36.089Z,1.58
2023-01-29T03:47:34.478Z,1.60
2023-01-29T03:50:09.199Z,1.61
2023-01-29T03:52:54.174Z,1.66
2023-01-29T03:55:29.152Z,1.64
2023-01-29T03:58:10.501Z,1.70
2023-01-29T04:00:45.039Z,1.70
2023-01-29T04:03:44.360Z,1.73
2023-01-29T04:06:22.287Z,1.68
2023-01-29T04:09:05.883Z,1.68
2023-01-29T04:11:38.393Z,1.66
2023-01-29T04:14:07.303Z,1.69
2023-01-29T04:16:41.219Z,1.66
2023-01-29T04:19:16.551Z,1.72
2023-01-29T04:21:45.307Z,1.74
2023-01-29T04:24:13.521Z,1.73
2023-01-29T04:26:54.921Z,1.73
2023-01-29T04:29:45.773Z,1.76
2023-01-29T04:32:13.500Z,1.75
2023-01-29T04:35:06.272Z,1.78
2023-01-29T04:37:39.225Z,1.79
2023-01-29T04:40:28.209Z,1.76
2023-01-29T04:43:08.069Z,1.76
2023-01-29T04:45:53.344Z,1.78
2023-01-29T04:48:49.477Z,1.81
2023-01-29T04:51:31.826Z,1.82
2023-01-29T04:54:17.416Z,1.82
2023-01-29T04:56:53.135Z,1.85
2023-01-29T04:59:36.696Z,1.81
2023-01-29T05:02:04.302Z,1.81
2023-01-29T05:04:34.234Z,1.83
2023-01-29T05:07:13.182Z,1.85
2023-01-29T05:09:42.914Z,1.84
2023-01-29T05:12:13.068Z,1.87
2023-01-29T05:14:44.589Z,1.86
2023-01-29T05:17:20.518Z,1.91
2023-01-29T05:19:48.125Z,1.87
2023-01-29T05:22:18.055Z,1.88
2023-01-29T05:24:45.114Z,1.91
2023-01-29T05:27:44.062Z,1.94
2023-01-29T05:30:11.373Z,1.93
2023-01-29T05:32:39.670Z,1.96
2023-01-29T05:35:06.938Z,1.98
2023-01-29T05:37:33.519Z,2.02
2023-01-29T05:40:00.138Z,2.04
2023-01-29T05:42:26.707Z,2.06
2023-01-29T05:44:53.726Z,2.07
2023-01-29T05:47:21.135Z,2.10
2023-01-29T05:49:47.803Z,2.11
2023-01-29T05:52:14.398Z,2.07
2023-01-29T05:54:41.153Z,2.09
2023-01-29T05:57:07.698Z,2.10
2023-01-29T05:59:34.372Z,2.12
2023-01-29T06:02:00.983Z,2.17
2023-01-29T06:04:27.716Z,2.10
2023-01-29T06:06:54.357Z,2.21
2023-01-29T06:09:21.047Z,2.22
2023-01-29T06:11:47.614Z,2.21
2023-01-29T06:14:14.218Z,2.19
2023-01-29T06:16:40.829Z,2.19
2023-01-29T06:19:07.622Z,2.23
2023-01-29T06:21:34.161Z,2.24
2023-01-29T06:24:01.121Z,2.20
2023-01-29T06:26:27.917Z,2.26
2023-01-29T06:28:54.602Z,2.25
2023-01-29T06:31:36.815Z,2.26
2023-01-29T06:34:04.824Z,2.28
2023-01-29T06:36:31.445Z,2.24
2023-01-29T06:38:58.224Z,2.25
2023-01-29T06:41:25.772Z,2.29
2023-01-29T06:43:52.730Z,2.31
2023-01-29T06:46:19.870Z,2.28
2023-01-29T06:48:46.682Z,2.29
2023-01-29T06:51:13.249Z,2.31
2023-01-29T06:53:40.920Z,2.37
2023-01-29T06:56:08.007Z,2.37
2023-01-29T06:58:38.100Z,2.36
2023-01-29T07:01:06.870Z,2.32
2023-01-29T07:03:33.964Z,2.35
2023-01-29T07:06:01.079Z,2.33
2023-01-29T07:08:28.456Z,2.29
2023-01-29T07:11:01.691Z,2.29
2023-01-29T07:13:28.492Z,2.29
2023-01-29T07:15:58.539Z,2.32
2023-01-29T07:18:25.297Z,2.32
2023-01-29T07:20:52.210Z,2.31
2023-01-29T07:23:18.939Z,2.30
2023-01-29T07:25:45.905Z,2.33
2023-01-29T07:28:12.460Z,2.36
2023-01-29T07:30:38.973Z,2.37
2023-01-29T07:33:08.243Z,2.42
2023-01-29T07:35:40.334Z,2.48
2023-01-29T07:38:08.552Z,2.49
2023-01-29T07:40:35.592Z,2.44
2023-01-29T07:43:05.167Z,2.46
2023-01-29T07:45:37.696Z,2.54
2023-01-29T07:48:07.351Z,2.53
2023-01-29T07:50:35.401Z,2.52
2023-01-29T07:53:02.155Z,2.53
2023-01-29T07:55:28.742Z,2.52
2023-01-29T07:57:56.829Z,2.48
2023-01-29T08:00:23.642Z,2.55
2023-01-29T08:02:50.534Z,2.55
2023-01-29T08:05:17.413Z,2.56
2023-01-29T08:07:49.154Z,2.63
2023-01-29T08:10:18.381Z,2.65
2023-01-29T08:12:45.145Z,2.65
2023-01-29T08:15:11.964Z,2.69
2023-01-29T08:17:49.269Z,2.65
2023-01-29T08:20:24.202Z,2.72
2023-01-29T08:22:59.794Z,2.81
2023-01-29T08:25:27.192Z,2.82
2023-01-29T08:27:54.768Z,2.83
2023-01-29T08:30:21.546Z,2.86
2023-01-29T08:32:50.230Z,2.87
2023-01-29T08:35:17.199Z,2.92
2023-01-29T08:37:44.157Z,2.94
2023-01-29T08:40:13.400Z,3.00
2023-01-29T08:42:41.500Z,3.05
2023-01-29T08:45:08.817Z,3.03
2023-01-29T08:47:35.367Z,2.97
2023-01-29T08:50:02.483Z,3.04
2023-01-29T08:52:29.132Z,3.03
2023-01-29T08:54:55.844Z,3.07
2023-01-29T08:57:22.625Z,3.07
2023-01-29T08:59:49.857Z,3.09
2023-01-29T09:02:16.467Z,3.16
2023-01-29T09:04:43.230Z,3.24
2023-01-29T09:07:09.860Z,3.23
2023-01-29T09:09:37.537Z,3.31
2023-01-29T09:12:04.612Z,3.36
2023-01-29T09:14:32.892Z,3.42
2023-01-29T09:16:59.451Z,3.44
2023-01-29T09:19:26.270Z,3.52
2023-01-29T09:21:52.858Z,3.48
2023-01-29T09:24:19.484Z,3.42
2023-01-29T09:26:46.185Z,3.50
2023-01-29T09:29:12.954Z,3.50
2023-01-29T09:31:39.631Z,3.53
2023-01-29T09:34:06.278Z,3.53
2023-01-29T09:36:35.112Z,3.63
2023-01-29T09:39:01.678Z,3.65
2023-01-29T09:41:31.261Z,3.67
2023-01-29T09:44:04.069Z,3.70
2023-01-29T09:46:30.611Z,3.73
2023-01-29T09:49:23.499Z,3.73
2023-01-29T09:51:59.236Z,3.80
2023-01-29T09:54:32.922Z,3.87
2023-01-29T09:57:00.693Z,3.90
2023-01-29T09:59:31.044Z,3.86
2023-01-29T10:02:06.612Z,3.90
2023-01-29T10:05:07.551Z,3.89
2023-01-29T10:07:55.769Z,3.94
2023-01-29T10:10:48.309Z,3.99
2023-01-29T10:13:27.165Z,4.09
2023-01-29T10:16:04.826Z,4.15
2023-01-29T10:19:12.898Z,4.16
2023-01-29T10:21:57.631Z,4.08
2023-01-29T10:24:52.783Z,4.07
2023-01-29T10:27:20.120Z,4.10
2023-01-29T10:29:50.990Z,4.19
2023-01-29T10:32:20.535Z,4.20
2023-01-29T10:35:03.734Z,4.29
2023-01-29T10:37:40.732Z,4.27
2023-01-29T10:40:39.893Z,4.34
2023-01-29T10:43:14.677Z,4.36
2023-01-29T10:45:58.145Z,4.32
2023-01-29T10:48:31.624Z,4.42
2023-01-29T10:51:25.269Z,4.45
2023-01-29T10:54:30.030Z,4.50
2023-01-29T10:57:15.346Z,4.59
2023-01-29T10:59:56.595Z,4.71
2023-01-29T11:02:23.228Z,4.58
2023-01-29T11:04:49.961Z,4.71
2023-01-29T11:07:19.862Z,4.85
2023-01-29T11:10:01.294Z,4.94
2023-01-29T11:12:31.220Z,5.14
2023-01-29T11:15:18.400Z,5.15
2023-01-29T11:18:06.230Z,5.08
2023-01-29T11:20:34.642Z,5.06
2023-01-29T11:23:01.361Z,5.02
2023-01-29T11:25:29.925Z,5.10
2023-01-29T11:27:58.571Z,5.18
2023-01-29T11:30:35.601Z,5.13
2023-01-29T11:33:05.393Z,5.27
2023-01-29T11:35:33.332Z,5.20
2023-01-29T11:38:27.306Z,5.22
2023-01-29T11:41:05.785Z,5.31
2023-01-29T11:43:33.261Z,5.31
2023-01-29T11:46:13.437Z,5.38
2023-01-29T11:48:48.046Z,5.40
2023-01-29T11:51:28.426Z,5.44
2023-01-29T11:53:58.966Z,5.55
2023-01-29T11:56:45.888Z,5.49
2023-01-29T11:59:39.499Z,5.55
2023-01-29T12:02:20.527Z,5.48
2023-01-29T12:04:48.198Z,5.58
2023-01-29T12:07:17.686Z,5.71
2023-01-29T12:09:58.773Z,5.55
2023-01-29T12:12:41.677Z,5.51
2023-01-29T12:15:22.466Z,5.45
2023-01-29T12:17:57.160Z,5.43
2023-01-29T12:20:30.866Z,5.51
2023-01-29T12:23:04.617Z,5.43
2023-01-29T12:25:44.974Z,5.47
2023-01-29T12:28:42.840Z,5.57
2023-01-29T12:31:29.093Z,5.41
2023-01-29T12:34:10.862Z,5.51
2023-01-29T12:36:53.245Z,5.62
2023-01-29T12:39:22.943Z,5.67
2023-01-29T12:41:59.152Z,5.62
2023-01-29T12:44:42.271Z,5.56
2023-01-29T12:47:18.282Z,5.57
2023-01-29T12:49:51.184Z,5.70
2023-01-29T12:52:44.132Z,5.66
2023-01-29T12:55:20.375Z,5.49
2023-01-29T12:57:58.687Z,5.47
2023-01-29T13:00:38.426Z,5.48
2023-01-29T13:03:34.830Z,5.42
2023-01-29T13:06:16.780Z,5.49
2023-01-29T13:08:51.391Z,5.43
2023-01-29T13:11:40.280Z,5.51
2023-01-29T13:14:28.836Z,5.53
2023-01-29T13:17:07.858Z,5.60
2023-01-29T13:19:42.484Z,5.61
2023-01-29T13:22:20.118Z,5.58
2023-01-29T13:24:58.758Z,5.58
2023-01-29T13:27:33.064Z,5.60
2023-01-29T13:30:00.242Z,5.60
2023-01-29T13:32:29.039Z,5.65
2023-01-29T13:34:59.798Z,5.66
2023-01-29T13:37:35.390Z,5.74
2023-01-29T13:40:05.581Z,5.76
2023-01-29T13:42:32.093Z,5.66
2023-01-29T13:45:03.131Z,5.68
2023-01-29T13:47:33.570Z,5.66
2023-01-29T13:50:10.359Z,5.73
2023-01-29T13:52:43.286Z,5.77
2023-01-29T13:55:37.229Z,5.78
2023-01-29T13:58:07.881Z,5.79
2023-01-29T14:00:34.433Z,5.72
2023-01-29T14:03:01.204Z,5.70
2023-01-29T14:05:30.849Z,5.72
2023-01-29T14:08:14.032Z,5.77
2023-01-29T14:10:42.855Z,5.86
2023-01-29T14:13:18.864Z,5.78
2023-01-29T14:16:06.783Z,5.82
2023-01-29T14:18:36.001Z,5.93
2023-01-29T14:21:17.557Z,5.84
2023-01-29T14:23:47.120Z,5.80
2023-01-29T14:26:55.436Z,5.82
2023-01-29T14:29:34.867Z,5.96
2023-01-29T14:32:05.938Z,5.97
2023-01-29T14:34:56.755Z,6.04
2023-01-29T14:37:33.790Z,5.97
2023-01-29T14:40:12.453Z,5.87
2023-01-29T14:42:47.856Z,5.97
2023-01-29T14:45:36.840Z,5.92
2023-01-29T14:48:09.508Z,5.88
2023-01-29T14:50:36.627Z,5.91
2023-01-29T14:53:16.673Z,5.84
2023-01-29T14:55:48.295Z,5.85
2023-01-29T14:58:24.367Z,5.87
2023-01-29T15:00:54.493Z,5.86
2023-01-29T15:03:43.065Z,5.87
2023-01-29T15:06:17.263Z,5.86
2023-01-29T15:08:50.920Z,5.90
2023-01-29T15:11:35.716Z,5.88
2023-01-29T15:14:24.120Z,5.93
2023-01-29T15:17:32.655Z,5.87
2023-01-29T15:19:59.534Z,5.75
2023-01-29T15:22:28.974Z,5.72
2023-01-29T15:25:41.463Z,5.77
2023-01-29T15:28:11.101Z,5.76
2023-01-29T15:30:38.048Z,5.67
2023-01-29T15:33:10.499Z,5.67
2023-01-29T15:35:39.661Z,5.60
2023-01-29T15:38:16.254Z,5.61
2023-01-29T15:40:58.673Z,5.61
2023-01-29T15:43:29.671Z,5.57
2023-01-29T15:46:12.425Z,5.45
2023-01-29T15:48:42.751Z,5.50
2023-01-29T15:51:15.436Z,5.54
2023-01-29T15:53:55.163Z,5.46
2023-01-29T15:56:37.366Z,5.49
2023-01-29T15:59:09.678Z,5.45
2023-01-29T16:01:36.736Z,5.44
2023-01-29T16:04:04.381Z,5.36
2023-01-29T16:06:38.935Z,5.31
2023-01-29T16:09:07.637Z,5.38
2023-01-29T16:11:35.680Z,5.30
2023-01-29T16:14:05.127Z,5.25
2023-01-29T16:16:32.001Z,5.28
2023-01-29T16:19:00.888Z,5.25
2023-01-29T16:21:42.073Z,5.30
2023-01-29T16:24:20.083Z,5.28
2023-01-29T16:26:53.444Z,5.28
2023-01-29T16:29:36.751Z,5.26
2023-01-29T16:32:05.180Z,5.23
2023-01-29T16:34:37.319Z,5.19
2023-01-29T16:37:18.206Z,5.19
2023-01-29T16:39:47.943Z,5.18
2023-01-29T16:42:20.108Z,5.24
2023-01-29T16:44:53.707Z,5.24
2023-01-29T16:47:40.523Z,5.16
2023-01-29T16:50:22.394Z,5.19
2023-01-29T16:53:01.356Z,5.09
2023-01-29T16:55:35.506Z,5.08
2023-01-29T16:58:22.866Z,4.99
2023-01-29T17:00:53.798Z,5.06
2023-01-29T17:03:23.211Z,5.06
2023-01-29T17:05:50.968Z,5.07
2023-01-29T17:08:29.295Z,5.10
2023-01-29T17:10:56.620Z,5.11
2023-01-29T17:13:46.673Z,5.07
2023-01-29T17:16:22.532Z,5.05
2023-01-29T17:18:49.888Z,5.06
2023-01-29T17:21:16.482Z,5.08
2023-01-29T17:23:43.096Z,4.96
2023-01-29T17:26:12.746Z,5.02
2023-01-29T17:28:42.675Z,5.03
2023-01-29T17:31:09.789Z,5.10
2023-01-29T17:33:41.962Z,5.11
2023-01-29T17:36:16.592Z,5.01
2023-01-29T17:38:43.738Z,5.10
2023-01-29T17:41:26.927Z,5.04
2023-01-29T17:43:53.773Z,4.88
2023-01-29T17:46:22.689Z,4.91
2023-01-29T17:48:54.261Z,4.92
2023-01-29T17:51:23.418Z,5.03
2023-01-29T17:53:51.182Z,4.98
2023-01-29T17:56:29.043Z,4.87
2023-01-29T17:58:56.297Z,4.90
2023-01-29T18:01:23.253Z,4.87
2023-01-29T18:03:54.664Z,4.86
2023-01-29T18:06:28.379Z,4.87
2023-01-29T18:08:56.519Z,4.89
2023-01-29T18:11:23.514Z,4.87
2023-01-29T18:13:50.367Z,4.94
2023-01-29T18:16:22.234Z,4.87
2023-01-29T18:18:51.985Z,4.90
2023-01-29T18:21:18.932Z,4.86
2023-01-29T18:23:45.837Z,4.85
2023-01-29T18:26:15.713Z,4.81
2023-01-29T18:28:43.647Z,4.82
2023-01-29T18:31:12.987Z,4.87
2023-01-29T18:33:40.686Z,4.83
2023-01-29T18:36:08.130Z,4.86
2023-01-29T18:38:35.034Z,4.80
2023-01-29T18:41:12.421Z,4.82
2023-01-29T18:43:40.682Z,4.92
2023-01-29T18:46:08.240Z,4.92
2023-01-29T18:48:41.625Z,4.94
2023-01-29T18:51:09.265Z,5.00
2023-01-29T18:53:39.774Z,4.99
2023-01-29T18:56:07.990Z,4.96
2023-01-29T18:58:36.427Z,5.02
2023-01-29T19:01:10.890Z,4.97
2023-01-29T19:03:42.767Z,5.00
2023-01-29T19:06:11.152Z,4.99
2023-01-29T19:08:47.878Z,4.98
2023-01-29T19:11:32.855Z,4.92
2023-01-29T19:14:02.195Z,4.94
2023-01-29T19:16:32.139Z,5.02
2023-01-29T19:18:59.236Z,4.95
2023-01-29T19:21:28.548Z,5.03
2023-01-29T19:23:55.895Z,5.06
2023-01-29T19:26:23.313Z,5.00
2023-01-29T19:28:51.013Z,5.03
2023-01-29T19:31:17.684Z,5.09
2023-01-29T19:33:44.431Z,5.07
2023-01-29T19:36:12.782Z,5.10
2023-01-29T19:38:43.184Z,5.05
2023-01-29T19:41:10.230Z,5.06
2023-01-29T19:43:40.559Z,5.12
2023-01-29T19:46:07.691Z,5.15
2023-01-29T19:48:34.305Z,5.09
2023-01-29T19:51:04.375Z,5.17
2023-01-29T19:53:31.474Z,5.22
2023-01-29T19:56:04.945Z,5.22
2023-01-29T19:58:32.945Z,5.18
2023-01-29T20:01:24.256Z,5.21
2023-01-29T20:03:51.951Z,5.17
2023-01-29T20:06:22.568Z,5.23
2023-01-29T20:08:52.404Z,5.21
2023-01-29T20:11:21.833Z,5.25
2023-01-29T20:13:51.174Z,5.20
2023-01-29T20:16:18.960Z,5.26
2023-01-29T20:18:45.659Z,5.26
2023-01-29T20:21:15.932Z,5.30
2023-01-29T20:23:44.915Z,5.33
2023-01-29T20:26:15.452Z,5.31
2023-01-29T20:28:43.313Z,5.29
2023-01-29T20:31:10.175Z,5.27
2023-01-29T20:33:39.371Z,5.31
2023-01-29T20:36:08.547Z,5.23
2023-01-29T20:38:35.941Z,5.24
2023-01-29T20:41:07.831Z,5.27
2023-01-29T20:43:35.627Z,5.35
2023-01-29T20:46:02.760Z,5.31
2023-01-29T20:48:34.272Z,5.36
2023-01-29T20:51:09.841Z,5.32
2023-01-29T20:53:37.175Z,5.37
2023-01-29T20:56:05.179Z,5.37
2023-01-29T20:58:32.454Z,5.37
2023-01-29T21:00:59.788Z,5.30
2023-01-29T21:03:26.567Z,5.37
2023-01-29T21:05:54.373Z,5.41
2023-01-29T21:08:22.317Z,5.39
2023-01-29T21:10:50.122Z,5.44
2023-01-29T21:13:17.016Z,5.40
2023-01-29T21:15:44.270Z,5.40
2023-01-29T21:18:11.302Z,5.39
2023-01-29T21:20:37.901Z,5.42
2023-01-29T21:23:06.977Z,5.47
2023-01-29T21:25:33.960Z,5.53
2023-01-29T21:28:00.828Z,5.48
2023-01-29T21:30:27.600Z,5.57
2023-01-29T21:32:54.322Z,5.52
2023-01-29T21:35:23.413Z,5.52
2023-01-29T21:37:50.232Z,5.58
2023-01-29T21:40:17.979Z,5.59
2023-01-29T21:43:04.010Z,5.59
2023-01-29T21:45:30.789Z,5.63
2023-01-29T21:47:57.484Z,5.61
2023-01-29T21:50:24.228Z,5.66
2023-01-29T21:52:51.269Z,5.71
2023-01-29T21:55:18.245Z,5.73
2023-01-29T21:57:46.768Z,5.76
2023-01-29T22:00:14.004Z,5.75
2023-01-29T22:02:41.727Z,5.75
2023-01-29T22:05:18.707Z,5.79
2023-01-29T22:07:48.528Z,5.76
2023-01-29T22:10:17.167Z,5.78
2023-01-29T22:12:44.686Z,5.81
2023-01-29T22:15:12.232Z,5.87
2023-01-29T22:17:42.391Z,5.82
2023-01-29T22:20:14.189Z,5.85
2023-01-29T22:22:41.011Z,5.82
2023-01-29T22:25:09.007Z,5.82
2023-01-29T22:27:35.619Z,5.82
2023-01-29T22:30:02.352Z,5.74
2023-01-29T22:32:31.258Z,5.79
2023-01-29T22:34:57.890Z,5.79
2023-01-29T22:37:24.438Z,5.83
2023-01-29T22:39:51.206Z,5.80
2023-01-29T22:42:20.036Z,5.78
2023-01-29T22:44:49.488Z,5.78
2023-01-29T22:47:16.430Z,5.81
2023-01-29T22:49:45.492Z,5.86
2023-01-29T22:52:12.416Z,5.83
2023-01-29T22:54:41.567Z,5.82
2023-01-29T22:57:13.365Z,5.89
2023-01-29T22:59:40.559Z,5.92
2023-01-29T23:02:08.641Z,5.96
2023-01-29T23:04:35.666Z,5.94
2023-01-29T23:07:02.361Z,5.92
2023-01-29T23:09:30.481Z,5.91
2023-01-29T23:11:57.096Z,5.94
2023-01-29T23:14:23.743Z,5.94
2023-01-29T23:16:50.702Z,6.05
2023-01-29T23:19:17.391Z,5.93
2023-01-29T23:21:43.994Z,6.00
2023-01-29T23:24:10.930Z,5.95
2023-01-29T23:26:56.171Z,6.03
2023-01-29T23:29:24.367Z,6.03
2023-01-29T23:31:51.992Z,6.00
2023-01-29T23:34:18.732Z,6.02
2023-01-29T23:36:45.370Z,6.05
2023-01-29T23:39:12.017Z,6.08
2023-01-29T23:41:38.699Z,6.08
2023-01-29T23:44:05.469Z,6.14
2023-01-29T23:46:32.356Z,6.15
2023-01-29T23:48:59.199Z,6.13
2023-01-29T23:51:25.920Z,6.18
2023-01-29T23:53:52.891Z,6.16
2023-01-29T23:56:20.159Z,6.16
2023-01-29T23:58:48.076Z,6.20
